Bar Harbor, ME

1:48 AM EST on February 14, 2016 (GMT -0500)
College of the Atlantic | | Change Station
CLOSE
Current Station
Personal Weather Station
Location: Bar Harbor, ME
Elevation: 52 ft
Nearby Weather Stations
Active Advisory: Wind Chill Advisory Active Notice: Local Storm Report

Elev 52 ft 44.39 °N, 68.22 °W | Updated 44 seconds ago

Snow
Snow
-1.8 °F
Feels Like -14 °F
N
5.8
Wind Variable Wind from WNW
Gusts 7.0 mph

Today
High -- | Low -- °F
--% Chance of Precip.
Yesterday
High -- | Low -- °F
Precip. -- in
Pressure 29.96 in
Visibility 3.0 miles
Clouds Mostly Cloudy 3500 ft
Overcast 4100 ft
Windchill -14 °F
Dew Point -6 °F
Humidity 81%
Rainfall 0.00 in
Snow Depth Not available.
6:34 AM 4:59 PM
Waxing Crescent, 38% visible
METAR KBHB 140635Z 34010G14KT 3SM BKN035 OVC041 M20/M22 A2996 RMK AO1
Pressure 29.96 in
Visibility 3.0 miles
Clouds Mostly Cloudy 3500 ft
Overcast 4100 ft
Windchill -14 °F
Dew Point -6 °F
Humidity 81%
Rainfall 0.00 in
Snow Depth Not available.
6:34 AM 4:59 PM
Waxing Crescent, 38% visible
METAR KBHB 140635Z 34010G14KT 3SM BKN035 OVC041 M20/M22 A2996 RMK AO1

10-Day Weather Forecast

Almanac

Astronomy

Feb. 14, 2016 Rise Set
Actual Time
Civil Twilight
Nautical Twilight
Astronomical Twilight
Moon
Length of Visible Light
Length of Day
Tomorrow will be .
, % of the Moon is Illuminated

Today's Extremes

State Highs State Lows

Community

WunderPhotos

Upload Photos

1,892,757 photos uploaded!

WunderBlog® & News

Nearby

Air Quality

  Air Quality AQ Index Pollutant
Not available.

Snow Depth

Station Depth Elevation

Earthquake Activity

City Distance Mag. Time & Date
Minimum magnitude displayed is 2.5.

Coastal Water Temperatures

Place Temperature

Stations

Nearby Weather Stations

Station Location Temp. Windchill Dew Point Humidity Wind Precip. Elev Updated Type
                   

Watches & Warnings

Wind Chill Advisory
Issued: 10:42 PM EST Feb. 13, 2016 – National Weather Service

... Wind Chill Advisory remains in effect from 2 am to 10 am EST
Sunday...
... Winter Storm Warning is cancelled...

The National Weather Service in Caribou has cancelled the Winter
Storm Warning.

* Locations... coastal Hancock County.

* Hazard types... dangerously cold wind chills late tonight into
Sunday morning.

* Timing... dangerously cold wind chills will occur late tonight
into Sunday morning.

* Impacts... frostbite and hypothermia are likely if not dressed
appropriately while outdoors late tonight.

* Winds... northwest 15 to 25 mph with gusts up to 30 mph.

* Temperatures... 6 below to 5 above zero.

* Wind chill readings... as low as 28 below.

Precautionary/preparedness actions...

A Wind Chill Advisory means that very cold air and winds will
combine to generate low wind chills. This will result in frost
bite and lead to hypothermia if precautions are not taken. If you
must venture outdoors... make sure you wear a hat and gloves.